Terminal Aerodrome Forecast
Issued by NWS Wilmington, NC

Home | Current Version | Previous Version | Text Only | Print | Product List | Glossary On
Versions: 1 2 3 4 5 6 7 8 9 10 11 12 13 14 15 16 17 18
000
FTUS42 KILM 011400 AAA
TAFMYR
TAF AMD
KMYR 011434Z 0115/0212 14008KT P6SM VCSH SCT007 BKN018
     FM011700 12008KT 5SM -SHRA BKN030 BKN040
     FM012200 15007KT P6SM VCSH BKN035=

USA.gov is the U.S. government's official web portal to all federal, state and local government web resources and services.